sensor_id;sensor_type;location;lat;lon;timestamp;pressure;altitude;pressure_sealevel;temperature;humidity
35888;BME280;21990;42.540;23.496;2023-04-24T00:00:50;93337.88;;;7.17;85.46
35888;BME280;21990;42.540;23.496;2023-04-24T00:03:17;93334.78;;;7.26;85.43
35888;BME280;21990;42.540;23.496;2023-04-24T00:05:46;93331.44;;;7.28;84.90
35888;BME280;21990;42.540;23.496;2023-04-24T00:08:12;93335.53;;;7.27;84.42
35888;BME280;21990;42.540;23.496;2023-04-24T00:10:37;93327.91;;;7.27;83.69
35888;BME280;21990;42.540;23.496;2023-04-24T00:13:03;93329.91;;;7.32;84.21
35888;BME280;21990;42.540;23.496;2023-04-24T00:15:28;93325.28;;;7.40;85.07
35888;BME280;21990;42.540;23.496;2023-04-24T00:17:54;93315.56;;;7.47;85.34
35888;BME280;21990;42.540;23.496;2023-04-24T00:20:20;93314.31;;;7.42;85.19
35888;BME280;21990;42.540;23.496;2023-04-24T00:22:46;93315.31;;;7.39;84.28
35888;BME280;21990;42.540;23.496;2023-04-24T00:25:12;93307.94;;;7.42;84.53
35888;BME280;21990;42.540;23.496;2023-04-24T00:27:37;93310.97;;;7.44;84.54
35888;BME280;21990;42.540;23.496;2023-04-24T00:30:04;93310.69;;;7.47;84.51
35888;BME280;21990;42.540;23.496;2023-04-24T00:32:30;93302.28;;;7.47;84.82
35888;BME280;21990;42.540;23.496;2023-04-24T00:34:55;93300.81;;;7.41;85.07
35888;BME280;21990;42.540;23.496;2023-04-24T00:37:21;93294.91;;;7.44;85.94
35888;BME280;21990;42.540;23.496;2023-04-24T00:39:46;93293.38;;;7.49;85.46
35888;BME280;21990;42.540;23.496;2023-04-24T00:42:12;93296.94;;;7.49;85.38
35888;BME280;21990;42.540;23.496;2023-04-24T00:44:38;93284.72;;;7.47;86.35
35888;BME280;21990;42.540;23.496;2023-04-24T00:47:04;93282.72;;;7.42;88.21
35888;BME280;21990;42.540;23.496;2023-04-24T00:49:29;93277.69;;;7.29;87.64
35888;BME280;21990;42.540;23.496;2023-04-24T00:51:55;93279.53;;;7.21;89.85
35888;BME280;21990;42.540;23.496;2023-04-24T00:54:22;93281.31;;;7.19;89.82
35888;BME280;21990;42.540;23.496;2023-04-24T00:56:48;93274.41;;;7.25;89.35
35888;BME280;21990;42.540;23.496;2023-04-24T00:59:16;93272.84;;;7.35;89.92
35888;BME280;21990;42.540;23.496;2023-04-24T01:01:43;93271.38;;;7.23;89.74
35888;BME280;21990;42.540;23.496;2023-04-24T01:04:11;93273.91;;;7.27;89.68
35888;BME280;21990;42.540;23.496;2023-04-24T01:06:39;93280.41;;;7.40;89.89
35888;BME280;21990;42.540;23.496;2023-04-24T01:09:05;93279.34;;;7.49;89.48
35888;BME280;21990;42.540;23.496;2023-04-24T01:11:30;93279.31;;;7.54;88.10
35888;BME280;21990;42.540;23.496;2023-04-24T01:13:56;93273.72;;;7.54;88.03
35888;BME280;21990;42.540;23.496;2023-04-24T01:16:23;93284.66;;;7.58;87.80
35888;BME280;21990;42.540;23.496;2023-04-24T01:18:48;93284.88;;;7.60;88.09
35888;BME280;21990;42.540;23.496;2023-04-24T01:21:15;93288.44;;;7.60;88.32
35888;BME280;21990;42.540;23.496;2023-04-24T01:23:45;93279.47;;;7.68;87.70
35888;BME280;21990;42.540;23.496;2023-04-24T01:26:12;93274.72;;;7.57;88.56
35888;BME280;21990;42.540;23.496;2023-04-24T01:28:38;93275.69;;;7.59;88.18
35888;BME280;21990;42.540;23.496;2023-04-24T01:31:04;93268.78;;;7.66;88.79
35888;BME280;21990;42.540;23.496;2023-04-24T01:33:29;93267.00;;;7.63;88.62
35888;BME280;21990;42.540;23.496;2023-04-24T01:35:55;93263.91;;;7.67;89.13
35888;BME280;21990;42.540;23.496;2023-04-24T01:38:21;93276.63;;;7.73;88.47
35888;BME280;21990;42.540;23.496;2023-04-24T01:40:47;93261.78;;;7.78;87.20
35888;BME280;21990;42.540;23.496;2023-04-24T01:43:13;93262.25;;;7.82;87.45
35888;BME280;21990;42.540;23.496;2023-04-24T01:45:38;93266.56;;;7.89;87.26
35888;BME280;21990;42.540;23.496;2023-04-24T01:48:04;93263.69;;;7.94;86.79
35888;BME280;21990;42.540;23.496;2023-04-24T01:50:30;93269.59;;;7.91;85.94
35888;BME280;21990;42.540;23.496;2023-04-24T01:52:56;93259.44;;;7.88;86.65
35888;BME280;21990;42.540;23.496;2023-04-24T01:55:21;93255.38;;;7.83;87.17
35888;BME280;21990;42.540;23.496;2023-04-24T01:57:47;93250.91;;;7.69;87.87
35888;BME280;21990;42.540;23.496;2023-04-24T02:00:13;93257.56;;;7.66;88.02
35888;BME280;21990;42.540;23.496;2023-04-24T02:02:40;93238.94;;;7.69;88.61
35888;BME280;21990;42.540;23.496;2023-04-24T02:05:07;93227.03;;;7.62;89.94
35888;BME280;21990;42.540;23.496;2023-04-24T02:07:33;93197.97;;;7.60;90.94
35888;BME280;21990;42.540;23.496;2023-04-24T02:09:58;93184.25;;;7.51;92.52
35888;BME280;21990;42.540;23.496;2023-04-24T02:12:24;93191.41;;;7.52;92.26
35888;BME280;21990;42.540;23.496;2023-04-24T02:14:50;93208.19;;;7.57;91.91
35888;BME280;21990;42.540;23.496;2023-04-24T02:17:15;93220.66;;;7.62;91.53
35888;BME280;21990;42.540;23.496;2023-04-24T02:19:42;93212.47;;;7.64;92.03
35888;BME280;21990;42.540;23.496;2023-04-24T02:22:07;93200.38;;;7.75;91.52
35888;BME280;21990;42.540;23.496;2023-04-24T02:24:33;93198.00;;;7.84;92.03
35888;BME280;21990;42.540;23.496;2023-04-24T02:26:58;93198.47;;;7.88;91.25
35888;BME280;21990;42.540;23.496;2023-04-24T02:29:25;93209.13;;;7.95;91.02
35888;BME280;21990;42.540;23.496;2023-04-24T02:31:51;93205.25;;;7.98;90.24
35888;BME280;21990;42.540;23.496;2023-04-24T02:34:16;93189.00;;;7.91;89.60
35888;BME280;21990;42.540;23.496;2023-04-24T02:36:42;93195.56;;;7.99;90.00
35888;BME280;21990;42.540;23.496;2023-04-24T02:39:07;93199.66;;;7.98;90.45
35888;BME280;21990;42.540;23.496;2023-04-24T02:41:33;93194.09;;;7.93;90.74
35888;BME280;21990;42.540;23.496;2023-04-24T02:43:59;93194.63;;;7.91;89.96
35888;BME280;21990;42.540;23.496;2023-04-24T02:46:25;93194.22;;;7.82;90.02
35888;BME280;21990;42.540;23.496;2023-04-24T02:48:50;93194.72;;;7.80;90.40
35888;BME280;21990;42.540;23.496;2023-04-24T02:51:16;93188.94;;;7.73;90.78
35888;BME280;21990;42.540;23.496;2023-04-24T02:53:41;93185.41;;;7.67;90.51
35888;BME280;21990;42.540;23.496;2023-04-24T02:56:07;93180.53;;;7.73;90.30
35888;BME280;21990;42.540;23.496;2023-04-24T02:58:33;93183.84;;;7.71;89.76
35888;BME280;21990;42.540;23.496;2023-04-24T03:00:58;93193.28;;;7.74;89.76
35888;BME280;21990;42.540;23.496;2023-04-24T03:03:24;93189.75;;;7.68;89.51
35888;BME280;21990;42.540;23.496;2023-04-24T03:05:49;93190.28;;;7.66;89.55
35888;BME280;21990;42.540;23.496;2023-04-24T03:08:15;93192.03;;;7.69;88.83
35888;BME280;21990;42.540;23.496;2023-04-24T03:10:41;93181.44;;;7.56;88.84
35888;BME280;21990;42.540;23.496;2023-04-24T03:13:06;93200.00;;;7.59;89.20
35888;BME280;21990;42.540;23.496;2023-04-24T03:15:32;93191.84;;;7.61;88.73
35888;BME280;21990;42.540;23.496;2023-04-24T03:17:57;93200.06;;;7.54;88.30
35888;BME280;21990;42.540;23.496;2023-04-24T03:20:23;93189.66;;;7.49;88.66
35888;BME280;21990;42.540;23.496;2023-04-24T03:22:49;93186.16;;;7.37;88.65
35888;BME280;21990;42.540;23.496;2023-04-24T03:25:15;93190.59;;;7.27;89.76
35888;BME280;21990;42.540;23.496;2023-04-24T03:27:40;93183.69;;;7.28;90.07
35888;BME280;21990;42.540;23.496;2023-04-24T03:30:07;93182.59;;;7.37;90.35
35888;BME280;21990;42.540;23.496;2023-04-24T03:32:33;93180.06;;;7.39;90.19
35888;BME280;21990;42.540;23.496;2023-04-24T03:34:58;93191.75;;;7.43;89.64
35888;BME280;21990;42.540;23.496;2023-04-24T03:37:24;93187.91;;;7.46;89.89
35888;BME280;21990;42.540;23.496;2023-04-24T03:39:50;93187.59;;;7.49;89.51
35888;BME280;21990;42.540;23.496;2023-04-24T03:42:16;93184.03;;;7.49;89.88
35888;BME280;21990;42.540;23.496;2023-04-24T03:44:41;93179.22;;;7.44;89.68
35888;BME280;21990;42.540;23.496;2023-04-24T03:47:07;93192.47;;;7.43;90.13
35888;BME280;21990;42.540;23.496;2023-04-24T03:49:32;93197.28;;;7.48;90.10
35888;BME280;21990;42.540;23.496;2023-04-24T03:51:58;93190.69;;;7.46;90.13
35888;BME280;21990;42.540;23.496;2023-04-24T03:54:23;93191.22;;;7.44;90.47
35888;BME280;21990;42.540;23.496;2023-04-24T03:56:49;93191.75;;;7.43;90.84
35888;BME280;21990;42.540;23.496;2023-04-24T03:59:15;93186.63;;;7.47;91.00
35888;BME280;21990;42.540;23.496;2023-04-24T04:01:40;93184.81;;;7.49;90.84
35888;BME280;21990;42.540;23.496;2023-04-24T04:04:06;93181.47;;;7.51;91.16
35888;BME280;21990;42.540;23.496;2023-04-24T04:06:33;93189.94;;;7.45;91.18
35888;BME280;21990;42.540;23.496;2023-04-24T04:08:59;93184.47;;;7.58;91.27
35888;BME280;21990;42.540;23.496;2023-04-24T04:11:25;93193.09;;;7.66;91.39
35888;BME280;21990;42.540;23.496;2023-04-24T04:13:50;93184.47;;;7.58;91.12
35888;BME280;21990;42.540;23.496;2023-04-24T04:16:16;93190.41;;;7.49;92.40
35888;BME280;21990;42.540;23.496;2023-04-24T04:18:43;93194.19;;;7.52;92.81
35888;BME280;21990;42.540;23.496;2023-04-24T04:21:08;93192.94;;;7.53;93.36
35888;BME280;21990;42.540;23.496;2023-04-24T04:23:34;93188.97;;;7.67;93.73
35888;BME280;21990;42.540;23.496;2023-04-24T04:26:00;93182.66;;;7.61;93.09
35888;BME280;21990;42.540;23.496;2023-04-24T04:28:26;93191.06;;;7.61;93.58
35888;BME280;21990;42.540;23.496;2023-04-24T04:30:52;93200.03;;;7.84;94.38
35888;BME280;21990;42.540;23.496;2023-04-24T04:33:21;93194.78;;;7.99;94.48
35888;BME280;21990;42.540;23.496;2023-04-24T04:35:47;93199.06;;;8.05;94.74
35888;BME280;21990;42.540;23.496;2023-04-24T04:38:22;93204.50;;;8.22;94.78
35888;BME280;21990;42.540;23.496;2023-04-24T04:40:48;93200.28;;;8.40;94.45
35888;BME280;21990;42.540;23.496;2023-04-24T04:43:14;93191.88;;;8.58;92.81
35888;BME280;21990;42.540;23.496;2023-04-24T04:45:41;93188.09;;;8.75;91.93
35888;BME280;21990;42.540;23.496;2023-04-24T04:48:09;93188.94;;;8.88;91.18
35888;BME280;21990;42.540;23.496;2023-04-24T04:50:35;93205.34;;;9.03;91.36
35888;BME280;21990;42.540;23.496;2023-04-24T04:53:00;93187.56;;;9.14;90.21
35888;BME280;21990;42.540;23.496;2023-04-24T04:55:26;93190.53;;;9.21;90.61
35888;BME280;21990;42.540;23.496;2023-04-24T04:57:52;93189.38;;;9.30;89.95
35888;BME280;21990;42.540;23.496;2023-04-24T05:00:18;93198.84;;;9.45;89.87
35888;BME280;21990;42.540;23.496;2023-04-24T05:02:43;93194.56;;;9.58;88.83
35888;BME280;21990;42.540;23.496;2023-04-24T05:05:09;93202.06;;;9.68;88.40
35888;BME280;21990;42.540;23.496;2023-04-24T05:07:35;93201.13;;;9.79;87.99
35888;BME280;21990;42.540;23.496;2023-04-24T05:10:01;93195.63;;;9.86;89.21
35888;BME280;21990;42.540;23.496;2023-04-24T05:12:26;93198.25;;;9.97;88.10
35888;BME280;21990;42.540;23.496;2023-04-24T05:14:52;93197.41;;;10.02;86.41
35888;BME280;21990;42.540;23.496;2023-04-24T05:17:18;93203.22;;;10.05;85.79
35888;BME280;21990;42.540;23.496;2023-04-24T05:19:43;93203.88;;;9.97;86.51
35888;BME280;21990;42.540;23.496;2023-04-24T05:22:09;93196.19;;;9.98;87.25
35888;BME280;21990;42.540;23.496;2023-04-24T05:24:36;93205.09;;;10.02;86.66
35888;BME280;21990;42.540;23.496;2023-04-24T05:27:04;93202.78;;;10.00;86.49
35888;BME280;21990;42.540;23.496;2023-04-24T05:29:30;93209.31;;;10.09;86.61
35888;BME280;21990;42.540;23.496;2023-04-24T05:31:57;93206.56;;;10.22;86.74
35888;BME280;21990;42.540;23.496;2023-04-24T05:34:23;93204.19;;;10.26;86.31
35888;BME280;21990;42.540;23.496;2023-04-24T05:36:48;93214.72;;;10.38;86.44
35888;BME280;21990;42.540;23.496;2023-04-24T05:39:15;93209.06;;;10.52;87.03
35888;BME280;21990;42.540;23.496;2023-04-24T05:41:41;93210.47;;;10.71;87.25
35888;BME280;21990;42.540;23.496;2023-04-24T05:44:06;93209.47;;;10.95;87.16
35888;BME280;21990;42.540;23.496;2023-04-24T05:46:32;93213.00;;;11.22;88.23
35888;BME280;21990;42.540;23.496;2023-04-24T05:48:57;93208.25;;;11.51;87.73
35888;BME280;21990;42.540;23.496;2023-04-24T05:51:23;93209.69;;;11.99;85.25
35888;BME280;21990;42.540;23.496;2023-04-24T05:53:49;93203.69;;;12.23;82.11
35888;BME280;21990;42.540;23.496;2023-04-24T05:56:15;93199.09;;;12.61;83.71
35888;BME280;21990;42.540;23.496;2023-04-24T05:58:41;93212.06;;;13.13;82.37
35888;BME280;21990;42.540;23.496;2023-04-24T06:01:06;93206.38;;;13.49;80.40
35888;BME280;21990;42.540;23.496;2023-04-24T06:03:32;93203.22;;;13.75;76.41
35888;BME280;21990;42.540;23.496;2023-04-24T06:05:58;93207.94;;;13.73;75.76
35888;BME280;21990;42.540;23.496;2023-04-24T06:08:23;93205.66;;;13.71;75.14
35888;BME280;21990;42.540;23.496;2023-04-24T06:10:49;93195.13;;;13.79;74.82
35888;BME280;21990;42.540;23.496;2023-04-24T06:13:15;93197.03;;;13.85;73.36
35888;BME280;21990;42.540;23.496;2023-04-24T06:15:41;93184.56;;;13.95;74.72
35888;BME280;21990;42.540;23.496;2023-04-24T06:18:07;93194.41;;;14.24;70.57
35888;BME280;21990;42.540;23.496;2023-04-24T06:20:33;93193.84;;;14.34;69.27
35888;BME280;21990;42.540;23.496;2023-04-24T06:22:58;93192.91;;;14.16;67.81
35888;BME280;21990;42.540;23.496;2023-04-24T06:25:27;93185.00;;;14.45;67.96
35888;BME280;21990;42.540;23.496;2023-04-24T06:27:54;93184.41;;;14.69;64.74
35888;BME280;21990;42.540;23.496;2023-04-24T06:30:20;93195.19;;;14.55;63.59
35888;BME280;21990;42.540;23.496;2023-04-24T06:32:45;93189.91;;;14.75;65.62
35888;BME280;21990;42.540;23.496;2023-04-24T06:35:11;93179.69;;;14.71;63.68
35888;BME280;21990;42.540;23.496;2023-04-24T06:37:39;93184.78;;;14.65;63.39
35888;BME280;21990;42.540;23.496;2023-04-24T06:40:05;93189.69;;;14.72;62.93
35888;BME280;21990;42.540;23.496;2023-04-24T06:42:31;93182.34;;;14.62;62.35
35888;BME280;21990;42.540;23.496;2023-04-24T06:44:56;93191.78;;;14.64;62.60
35888;BME280;21990;42.540;23.496;2023-04-24T06:47:22;93188.19;;;14.71;63.22
35888;BME280;21990;42.540;23.496;2023-04-24T06:49:47;93182.50;;;14.71;61.90
35888;BME280;21990;42.540;23.496;2023-04-24T06:52:13;93188.94;;;14.80;63.38
35888;BME280;21990;42.540;23.496;2023-04-24T06:54:39;93181.00;;;14.86;62.48
35888;BME280;21990;42.540;23.496;2023-04-24T06:57:04;93171.53;;;14.83;62.94
35888;BME280;21990;42.540;23.496;2023-04-24T06:59:30;93173.59;;;14.98;61.49
35888;BME280;21990;42.540;23.496;2023-04-24T07:01:56;93182.34;;;15.40;65.56
35888;BME280;21990;42.540;23.496;2023-04-24T07:04:23;93179.25;;;15.93;62.50
35888;BME280;21990;42.540;23.496;2023-04-24T07:06:50;93168.25;;;16.46;59.92
35888;BME280;21990;42.540;23.496;2023-04-24T07:09:16;93171.28;;;16.48;58.07
35888;BME280;21990;42.540;23.496;2023-04-24T07:11:44;93172.25;;;16.43;59.65
35888;BME280;21990;42.540;23.496;2023-04-24T07:14:10;93168.06;;;16.20;56.89
35888;BME280;21990;42.540;23.496;2023-04-24T07:16:35;93171.84;;;15.97;58.75
35888;BME280;21990;42.540;23.496;2023-04-24T07:19:01;93152.41;;;15.86;58.42
35888;BME280;21990;42.540;23.496;2023-04-24T07:21:26;93156.25;;;16.06;56.95
35888;BME280;21990;42.540;23.496;2023-04-24T07:23:52;93162.38;;;16.44;60.15
35888;BME280;21990;42.540;23.496;2023-04-24T07:26:18;93150.69;;;16.82;60.37
35888;BME280;21990;42.540;23.496;2023-04-24T07:28:44;93150.19;;;16.93;57.95
35888;BME280;21990;42.540;23.496;2023-04-24T07:31:11;93158.41;;;17.06;59.24
35888;BME280;21990;42.540;23.496;2023-04-24T07:33:37;93157.28;;;16.68;51.81
35888;BME280;21990;42.540;23.496;2023-04-24T07:36:03;93140.22;;;16.68;53.98
35888;BME280;21990;42.540;23.496;2023-04-24T07:38:31;93148.22;;;16.61;54.24
35888;BME280;21990;42.540;23.496;2023-04-24T07:40:57;93155.00;;;16.66;57.30
35888;BME280;21990;42.540;23.496;2023-04-24T07:43:23;93144.75;;;16.88;57.75
35888;BME280;21990;42.540;23.496;2023-04-24T07:45:50;93135.47;;;17.22;61.27
35888;BME280;21990;42.540;23.496;2023-04-24T07:48:16;93143.19;;;17.55;55.46
35888;BME280;21990;42.540;23.496;2023-04-24T07:50:43;93131.59;;;17.61;54.41
35888;BME280;21990;42.540;23.496;2023-04-24T07:53:09;93129.72;;;17.73;55.60
35888;BME280;21990;42.540;23.496;2023-04-24T07:55:34;93128.16;;;18.16;57.63
35888;BME280;21990;42.540;23.496;2023-04-24T07:58:00;93136.97;;;18.47;54.90
35888;BME280;21990;42.540;23.496;2023-04-24T08:00:25;93129.88;;;18.75;51.69
35888;BME280;21990;42.540;23.496;2023-04-24T08:02:51;93133.94;;;18.81;52.67
35888;BME280;21990;42.540;23.496;2023-04-24T08:05:16;93126.72;;;18.71;52.01
35888;BME280;21990;42.540;23.496;2023-04-24T08:07:42;93128.13;;;18.99;53.04
35888;BME280;21990;42.540;23.496;2023-04-24T08:10:10;93123.31;;;19.20;52.24
35888;BME280;21990;42.540;23.496;2023-04-24T08:12:37;93136.41;;;19.33;52.55
35888;BME280;21990;42.540;23.496;2023-04-24T08:15:03;93121.97;;;19.50;50.92
35888;BME280;21990;42.540;23.496;2023-04-24T08:17:29;93124.06;;;19.50;53.18
35888;BME280;21990;42.540;23.496;2023-04-24T08:19:55;93131.75;;;19.76;48.53
35888;BME280;21990;42.540;23.496;2023-04-24T08:22:28;93117.75;;;19.80;49.17
35888;BME280;21990;42.540;23.496;2023-04-24T08:24:54;93116.19;;;19.88;47.26
35888;BME280;21990;42.540;23.496;2023-04-24T08:27:21;93120.03;;;20.12;49.25
35888;BME280;21990;42.540;23.496;2023-04-24T08:29:46;93114.19;;;20.51;48.47
35888;BME280;21990;42.540;23.496;2023-04-24T08:32:12;93122.94;;;20.53;45.38
35888;BME280;21990;42.540;23.496;2023-04-24T08:34:37;93107.47;;;20.46;42.75
35888;BME280;21990;42.540;23.496;2023-04-24T08:37:03;93115.19;;;20.24;45.45
35888;BME280;21990;42.540;23.496;2023-04-24T08:39:28;93101.19;;;20.28;43.63
35888;BME280;21990;42.540;23.496;2023-04-24T08:41:55;93103.63;;;20.13;44.28
35888;BME280;21990;42.540;23.496;2023-04-24T08:44:21;93103.63;;;20.22;45.99
35888;BME280;21990;42.540;23.496;2023-04-24T08:46:48;93108.09;;;20.35;47.58
35888;BME280;21990;42.540;23.496;2023-04-24T08:49:14;93106.28;;;20.40;42.16
35888;BME280;21990;42.540;23.496;2023-04-24T08:51:44;93099.50;;;20.35;44.14
35888;BME280;21990;42.540;23.496;2023-04-24T08:54:11;93098.06;;;20.55;44.00
35888;BME280;21990;42.540;23.496;2023-04-24T08:56:38;93090.09;;;20.54;41.42
35888;BME280;21990;42.540;23.496;2023-04-24T08:59:06;93090.59;;;20.71;43.38
35888;BME280;21990;42.540;23.496;2023-04-24T09:01:33;93084.94;;;20.83;43.08
35888;BME280;21990;42.540;23.496;2023-04-24T09:04:02;93087.34;;;20.87;43.83
35888;BME280;21990;42.540;23.496;2023-04-24T09:06:28;93089.31;;;20.84;43.65
35888;BME280;21990;42.540;23.496;2023-04-24T09:08:54;93075.88;;;20.65;42.14
35888;BME280;21990;42.540;23.496;2023-04-24T09:11:21;93075.97;;;20.77;44.52
35888;BME280;21990;42.540;23.496;2023-04-24T09:13:49;93074.84;;;20.82;43.02
35888;BME280;21990;42.540;23.496;2023-04-24T09:16:16;93080.66;;;20.94;45.52
35888;BME280;21990;42.540;23.496;2023-04-24T09:18:42;93075.13;;;20.65;41.46
35888;BME280;21990;42.540;23.496;2023-04-24T09:21:08;93071.34;;;20.62;42.26
35888;BME280;21990;42.540;23.496;2023-04-24T09:23:34;93066.81;;;20.69;43.03
35888;BME280;21990;42.540;23.496;2023-04-24T09:26:01;93077.78;;;20.72;45.16
35888;BME280;21990;42.540;23.496;2023-04-24T09:28:32;93073.38;;;20.81;40.70
35888;BME280;21990;42.540;23.496;2023-04-24T09:31:09;93063.56;;;20.84;43.21
35888;BME280;21990;42.540;23.496;2023-04-24T09:33:36;93066.88;;;20.80;40.92
35888;BME280;21990;42.540;23.496;2023-04-24T09:36:02;93066.94;;;20.71;42.04
35888;BME280;21990;42.540;23.496;2023-04-24T09:38:38;93073.00;;;20.65;41.44
35888;BME280;21990;42.540;23.496;2023-04-24T09:41:08;93076.34;;;20.62;41.73
35888;BME280;21990;42.540;23.496;2023-04-24T09:43:38;93069.69;;;20.69;42.78
35888;BME280;21990;42.540;23.496;2023-04-24T09:46:06;93066.09;;;20.59;38.39
35888;BME280;21990;42.540;23.496;2023-04-24T09:48:33;93060.75;;;20.44;39.55
35888;BME280;21990;42.540;23.496;2023-04-24T09:51:01;93068.66;;;20.24;38.87
35888;BME280;21990;42.540;23.496;2023-04-24T09:53:28;93086.47;;;20.13;38.70
35888;BME280;21990;42.540;23.496;2023-04-24T09:55:54;93056.44;;;19.92;38.65
35888;BME280;21990;42.540;23.496;2023-04-24T09:58:26;93054.03;;;19.99;42.08
35888;BME280;21990;42.540;23.496;2023-04-24T10:00:56;93047.84;;;20.02;39.04
35888;BME280;21990;42.540;23.496;2023-04-24T10:03:25;93050.34;;;20.17;41.03
35888;BME280;21990;42.540;23.496;2023-04-24T10:05:52;93058.44;;;20.30;40.57
35888;BME280;21990;42.540;23.496;2023-04-24T10:08:19;93041.63;;;20.15;39.67
35888;BME280;21990;42.540;23.496;2023-04-24T10:10:45;93039.16;;;20.21;41.19
35888;BME280;21990;42.540;23.496;2023-04-24T10:13:13;93036.31;;;20.31;41.87
35888;BME280;21990;42.540;23.496;2023-04-24T10:15:41;93025.81;;;20.45;40.32
35888;BME280;21990;42.540;23.496;2023-04-24T10:18:08;93018.41;;;20.73;41.28
35888;BME280;21990;42.540;23.496;2023-04-24T10:20:35;93024.81;;;20.83;38.27
35888;BME280;21990;42.540;23.496;2023-04-24T10:23:03;92999.25;;;20.75;38.83
35888;BME280;21990;42.540;23.496;2023-04-24T10:25:30;93014.72;;;20.82;40.82
35888;BME280;21990;42.540;23.496;2023-04-24T10:27:56;93019.63;;;20.91;41.00
35888;BME280;21990;42.540;23.496;2023-04-24T10:30:26;93026.31;;;20.84;34.59
35888;BME280;21990;42.540;23.496;2023-04-24T10:32:52;93022.66;;;20.93;37.26
35888;BME280;21990;42.540;23.496;2023-04-24T10:35:18;93010.00;;;21.08;36.57
35888;BME280;21990;42.540;23.496;2023-04-24T10:37:56;93009.63;;;20.80;34.12
35888;BME280;21990;42.540;23.496;2023-04-24T10:40:29;93014.88;;;20.84;36.72
35888;BME280;21990;42.540;23.496;2023-04-24T10:42:56;93015.31;;;21.02;36.55
35888;BME280;21990;42.540;23.496;2023-04-24T10:45:23;93008.91;;;21.13;36.65
35888;BME280;21990;42.540;23.496;2023-04-24T10:47:59;93006.09;;;21.24;36.81
35888;BME280;21990;42.540;23.496;2023-04-24T10:50:27;92990.63;;;21.18;35.12
35888;BME280;21990;42.540;23.496;2023-04-24T10:52:55;92993.28;;;21.25;37.22
35888;BME280;21990;42.540;23.496;2023-04-24T10:58:09;92985.03;;;21.64;39.25
35888;BME280;21990;42.540;23.496;2023-04-24T11:00:37;92999.84;;;21.94;35.32
35888;BME280;21990;42.540;23.496;2023-04-24T11:03:06;92986.06;;;21.81;33.71
35888;BME280;21990;42.540;23.496;2023-04-24T11:08:25;92975.81;;;21.54;33.33
35888;BME280;21990;42.540;23.496;2023-04-24T11:11:03;92990.72;;;21.41;32.85
35888;BME280;21990;42.540;23.496;2023-04-24T11:16:20;92972.41;;;21.46;35.34
35888;BME280;21990;42.540;23.496;2023-04-24T11:18:50;92988.22;;;21.36;35.22
35888;BME280;21990;42.540;23.496;2023-04-24T11:21:18;92979.72;;;21.26;33.31
35888;BME280;21990;42.540;23.496;2023-04-24T11:23:45;92977.66;;;21.17;33.16
35888;BME280;21990;42.540;23.496;2023-04-24T11:26:18;92969.06;;;20.84;32.34
35888;BME280;21990;42.540;23.496;2023-04-24T11:28:50;92962.50;;;20.93;33.91
35888;BME280;21990;42.540;23.496;2023-04-24T11:31:38;92960.25;;;20.92;33.93
35888;BME280;21990;42.540;23.496;2023-04-24T11:34:12;92961.59;;;20.91;33.61
35888;BME280;21990;42.540;23.496;2023-04-24T11:36:39;92964.72;;;20.95;34.41
35888;BME280;21990;42.540;23.496;2023-04-24T11:39:06;92960.16;;;21.01;34.96
35888;BME280;21990;42.540;23.496;2023-04-24T11:41:33;92966.72;;;20.92;35.12
35888;BME280;21990;42.540;23.496;2023-04-24T11:43:58;92962.44;;;20.81;37.25
35888;BME280;21990;42.540;23.496;2023-04-24T11:46:28;92964.41;;;20.79;38.20
35888;BME280;21990;42.540;23.496;2023-04-24T11:48:55;92975.06;;;20.67;37.05
35888;BME280;21990;42.540;23.496;2023-04-24T11:51:22;92974.72;;;20.51;38.11
35888;BME280;21990;42.540;23.496;2023-04-24T11:53:49;92988.09;;;20.27;38.41
35888;BME280;21990;42.540;23.496;2023-04-24T11:56:17;92991.47;;;20.14;38.71
35888;BME280;21990;42.540;23.496;2023-04-24T11:58:44;93002.50;;;20.08;39.87
35888;BME280;21990;42.540;23.496;2023-04-24T12:01:09;93013.78;;;19.75;40.81
35888;BME280;21990;42.540;23.496;2023-04-24T12:03:35;93020.31;;;19.47;40.75
35888;BME280;21990;42.540;23.496;2023-04-24T12:06:07;93027.56;;;19.19;43.07
35888;BME280;21990;42.540;23.496;2023-04-24T12:08:34;93015.38;;;19.00;44.75
35888;BME280;21990;42.540;23.496;2023-04-24T12:11:05;93012.25;;;18.86;45.74
35888;BME280;21990;42.540;23.496;2023-04-24T12:13:32;93002.19;;;18.85;46.27
35888;BME280;21990;42.540;23.496;2023-04-24T12:15:58;92993.47;;;18.73;46.07
35888;BME280;21990;42.540;23.496;2023-04-24T12:18:24;92981.75;;;18.69;47.26
35888;BME280;21990;42.540;23.496;2023-04-24T12:20:50;92992.09;;;18.84;48.33
35888;BME280;21990;42.540;23.496;2023-04-24T12:23:16;92981.31;;;18.82;48.46
35888;BME280;21990;42.540;23.496;2023-04-24T12:25:43;92976.19;;;18.81;47.47
35888;BME280;21990;42.540;23.496;2023-04-24T12:28:12;92981.59;;;18.86;47.21
35888;BME280;21990;42.540;23.496;2023-04-24T12:30:41;92995.56;;;18.82;48.11
35888;BME280;21990;42.540;23.496;2023-04-24T12:33:09;92981.31;;;18.82;49.02
35888;BME280;21990;42.540;23.496;2023-04-24T12:35:35;92954.56;;;18.59;47.80
35888;BME280;21990;42.540;23.496;2023-04-24T12:38:08;92956.78;;;18.31;49.09
35888;BME280;21990;42.540;23.496;2023-04-24T12:40:34;92961.19;;;18.52;54.83
35888;BME280;21990;42.540;23.496;2023-04-24T12:43:00;92970.78;;;18.56;54.69
35888;BME280;21990;42.540;23.496;2023-04-24T12:45:26;92973.28;;;18.33;58.08
35888;BME280;21990;42.540;23.496;2023-04-24T12:47:53;92979.69;;;18.14;55.59
35888;BME280;21990;42.540;23.496;2023-04-24T12:50:19;92970.47;;;17.77;57.08
35888;BME280;21990;42.540;23.496;2023-04-24T12:52:45;92967.16;;;17.44;60.18
35888;BME280;21990;42.540;23.496;2023-04-24T12:55:10;92966.78;;;17.31;62.56
35888;BME280;21990;42.540;23.496;2023-04-24T12:57:38;92965.09;;;17.01;64.53
35888;BME280;21990;42.540;23.496;2023-04-24T13:00:05;92959.47;;;16.84;71.78